Hooper Bay, AK

6:29 PM AKDT on September 16, 2014 (GMT -0800)
Chevak | Change Station
CLOSE
Current Station
Airport
Location: Chevak,
Elevation: 75 ft
Nearby Weather Stations

Elev 75 ft 61.54 °N, 165.60 °W | Updated 32 minutes ago

Mostly Cloudy
Mostly Cloudy
55 °F
Feels Like 55 °F
N
8
Wind Variable Wind from ESE

Today
High -- | Low -- °F
--% Chance of Precip.
Yesterday
High -- | Low -- °F
Precip. -- in
8:31 AM 9:20 PM
Last Quarter, 40% visible
Pressure 29.51 in
Visibility 10.0 miles
Clouds Scattered Clouds 9000 ft
Mostly Cloudy 11000 ft
Dew Point 48 °F
Humidity 77%
Rainfall 0.00 in
Snow Depth 1 in , 0 in , 2 in
UV 1 out of 12
Pollen Not available.
Air Quality Not available.
Flu Activity Not available.
METAR PAVA 170157Z AUTO 11007KT 10SM SCT090 BKN110 13/09 A2949 RMK AO2 RAB21E39 SLP991 P0000 T01280089

More Conditions Fewer Conditions

Pressure 29.51 in
Visibility 10.0 miles
Clouds Scattered Clouds 9000 ft
Mostly Cloudy 11000 ft
Dew Point 48 °F
Humidity 77%
Rainfall 0.00 in
Snow Depth 1 in , 0 in , 2 in
UV 1 out of 12
Pollen Not available.
Air Quality Not available.
Flu Activity Not available.
METAR PAVA 170157Z AUTO 11007KT 10SM SCT090 BKN110 13/09 A2949 RMK AO2 RAB21E39 SLP991 P0000 T01280089

More Conditions Fewer Conditions

10-Day Weather Forecast

Almanac

Astronomy

Sep. 16, 2014 Rise Set
Actual Time 8:31 AM AKDT 9:20 PM AKDT
Civil Twilight 7:47 AM AKDT 10:05 PM AKDT
Nautical Twilight 6:52 AM AKDT 10:59 PM AKDT
Astronomical Twilight 5:49 AM AKDT 12:01 AM AKDT
Moon 12:34 AM AKDT (9/16) 6:10 PM AKDT (9/16)
Length of Visible Light 14h 17m
Length of Day
12h 49m
Tomorrow will be 5m 44s shorter.
Last Quarter, 40% of the Moon is Illuminated
Today
Last Quarter
Sep 24
New
Oct 1
First Quarter
Oct 8
Full
Oct 15
Last Quarter

Today's Extremes

State Highs State Lows

Community

WunderPhotos

Upload Photos

1,753,949 photos uploaded!

Nearby

Snow Depth

Station Depth Elevation
Turnagain Pass 1 in 1880 ft
Mcneil Canyon 1 in 1320 ft
Little Chena Ridge 0 in 2000 ft
Susitna Valley High 2 in 375 ft
Upper Chena 1 in 2850 ft

Earthquake Activity

City Distance Mag. Time & Date
No recent earthquake activity has been reported nearby.
Minimum magnitude displayed is 2.5.

Coastal Water Temperatures

Place Temperature
No Stations Reporting

Nearby Weather Stations